Mantorville, Minnesota
Current Conditions -  °F | °C
As of 2:14 PM on Thursday 18 Dec 2014 (Local Time) from KTOB Reporting Station
Overcast Overcast  
Wind Chill: 14°   Ceiling: 1400
Heat Index: 21°   Visibility: 10mi
Dew Point: 18°   Wind: 6mph
Humidity: 86%   Direction: 120°ESE
Pressure: 30.22"   Gusts: NA
Location:  44.07°N, 92.76°W
Report Text: KTOB 182014Z AUTO 12005KT 10SM OVC014 M06/M08 A3022 RMK AO2
Loading
Personal Weather Stations






























Interactive Weather Map New forecast layout! Learn more

10-Day Weather Forecast

Advertisements
Track Severe Weather on mobile